Airfield :







YOU CAN JOIN US ON...

 
LOGIN :

Register | Disclaimer

   EN    FR    IT 

 









Legend :    VFR   Marginal VFR   IFR   Intensive IFR   Very Intensive IFR
Visi :
Ceiling :
>= 8 km
>= 3000ft
5 to 8 km
1000 to 3000 ft
1500m to 5 km
500 to 1000 ft
800 to 1500m
200 to 500 ft
< 800m
< 200 ft
Symbols :   Thunderstorms  Fog  Heavy snow  Heavy precipitations  Wind > 20 kt







- Airport Elevation : 1663 ft
- IATA code : SLK


KSLK - Adirondack Regional

CURRENT METAR :
  • 221351Z AUTO 10SM OVC011 09/06 A3021 RMK AO2 SLP237 T00890056

EXPIRED METARs :
  • 221251Z AUTO 06003KT 10SM OVC011 08/06 A3021 RMK AO2 SLP238 T00830056
  • 221224Z AUTO 04003KT 10SM OVC010 08/05 A3021 RMK AO2 T00780050
  • 221203Z AUTO 05005KT 10SM OVC009 08/06 A3021 RMK AO2 T00780056
  • 221151Z AUTO 02003KT 10SM OVC010 08/06 A3021 RMK AO2 SLP234 T00780056 10083 20072 51017

TAF KSLK
Valid from the 22 at 12:00 until the 23 at 12:00 UTC


221120Z 2212/2312 VRB03KT P6SM BKN006
TEMPO 2212/2215 SCT006
FM221500 02005KT P6SM BKN028
FM221600 02006KT P6SM SCT040
KZBW FIR / North America



MET'MAP, your aeronautical weather chart ! - Copyright ORBIFLY December 2007 - Disclaimer

ORBIFLY MET'MAP TEAM :

Programming & Development : Alexandra Zaïnal
Concept & Development : Baudouin d'Aumeries
Co-Development & Prog : Marc-Olivier Méhu
Technical & hardware support : Manuel Goepfert

Contact : metmap@orbifly.com




SOURCES & CREDITS :

   NOAA